createdAt,value
2022-07-27T00:01:59.349Z,100.00
2022-07-27T00:05:01.131Z,100.00
2022-07-27T00:08:02.830Z,100.00
2022-07-27T00:11:05.222Z,100.00
2022-07-27T00:14:07.183Z,100.00
2022-07-27T00:17:08.885Z,100.00
2022-07-27T00:20:10.998Z,100.00
2022-07-27T00:23:12.964Z,100.00
2022-07-27T00:26:14.863Z,100.00
2022-07-27T00:29:16.655Z,100.00
2022-07-27T00:32:18.428Z,100.00
2022-07-27T00:35:20.161Z,100.00
2022-07-27T00:38:22.029Z,100.00
2022-07-27T00:41:23.812Z,100.00
2022-07-27T00:44:26.729Z,100.00
2022-07-27T00:47:28.494Z,100.00
2022-07-27T00:50:30.366Z,100.00
2022-07-27T00:53:32.043Z,100.00
2022-07-27T00:56:33.982Z,100.00
2022-07-27T00:59:35.897Z,100.00
2022-07-27T01:02:37.990Z,100.00
2022-07-27T01:05:48.051Z,100.00
2022-07-27T01:08:49.942Z,100.00
2022-07-27T01:11:51.761Z,100.00
2022-07-27T01:14:54.394Z,100.00
2022-07-27T01:17:56.193Z,100.00
2022-07-27T01:20:59.815Z,100.00
2022-07-27T01:24:02.071Z,100.00
2022-07-27T01:27:05.872Z,100.00
2022-07-27T01:30:26.519Z,100.00
2022-07-27T01:33:28.513Z,100.00
2022-07-27T01:36:30.264Z,100.00
2022-07-27T01:39:32.885Z,100.00
2022-07-27T01:42:35.568Z,100.00
2022-07-27T01:45:37.471Z,100.00
2022-07-27T01:48:39.572Z,100.00
2022-07-27T01:51:41.580Z,100.00
2022-07-27T01:54:43.351Z,100.00
2022-07-27T01:57:45.227Z,100.00
2022-07-27T02:00:49.013Z,100.00
2022-07-27T02:03:50.736Z,100.00
2022-07-27T02:06:52.475Z,100.00
2022-07-27T02:09:54.211Z,100.00
2022-07-27T02:12:55.978Z,100.00
2022-07-27T02:15:58.423Z,100.00
2022-07-27T02:19:00.293Z,100.00
2022-07-27T02:22:06.709Z,100.00
2022-07-27T02:25:09.170Z,100.00
2022-07-27T02:28:10.915Z,100.00
2022-07-27T02:31:12.683Z,100.00
2022-07-27T02:34:14.443Z,100.00
2022-07-27T02:37:16.558Z,100.00
2022-07-27T02:40:18.804Z,100.00
2022-07-27T02:43:20.560Z,100.00
2022-07-27T02:46:22.388Z,100.00
2022-07-27T02:49:24.317Z,100.00
2022-07-27T02:52:26.043Z,100.00
2022-07-27T02:55:27.936Z,100.00
2022-07-27T02:58:29.880Z,100.00
2022-07-27T03:01:31.668Z,100.00
2022-07-27T03:04:33.597Z,100.00
2022-07-27T03:07:35.468Z,100.00
2022-07-27T03:10:37.322Z,100.00
2022-07-27T03:13:39.468Z,100.00
2022-07-27T03:16:41.262Z,100.00
2022-07-27T03:19:43.050Z,100.00
2022-07-27T03:22:45.070Z,100.00
2022-07-27T03:25:46.788Z,100.00
2022-07-27T03:28:48.509Z,100.00
2022-07-27T03:31:50.244Z,100.00
2022-07-27T03:34:52.113Z,100.00
2022-07-27T03:37:53.784Z,100.00
2022-07-27T03:40:55.586Z,100.00
2022-07-27T03:43:57.323Z,100.00
2022-07-27T03:46:59.252Z,100.00
2022-07-27T03:50:00.985Z,100.00
2022-07-27T03:53:02.911Z,100.00
2022-07-27T03:56:04.940Z,100.00
2022-07-27T03:59:06.726Z,100.00
2022-07-27T04:02:08.992Z,100.00
2022-07-27T04:05:11.996Z,100.00
2022-07-27T04:08:13.737Z,100.00
2022-07-27T04:11:15.489Z,100.00
2022-07-27T04:14:19.997Z,100.00
2022-07-27T04:17:55.024Z,100.00
2022-07-27T04:20:43.581Z,100.00
2022-07-27T04:23:45.256Z,100.00
2022-07-27T04:26:46.993Z,100.00
2022-07-27T04:29:48.934Z,100.00
2022-07-27T04:32:50.822Z,100.00
2022-07-27T04:35:52.599Z,100.00
2022-07-27T04:38:54.303Z,100.00
2022-07-27T04:41:56.078Z,100.00
2022-07-27T04:44:57.824Z,100.00
2022-07-27T04:47:59.507Z,100.00
2022-07-27T04:51:01.575Z,100.00
2022-07-27T04:54:03.844Z,100.00
2022-07-27T04:57:05.533Z,100.00
2022-07-27T05:00:08.499Z,100.00
2022-07-27T05:03:10.823Z,100.00
2022-07-27T05:06:12.620Z,100.00
2022-07-27T05:09:14.564Z,100.00
2022-07-27T05:12:16.566Z,100.00
2022-07-27T05:15:18.529Z,100.00
2022-07-27T05:18:20.759Z,100.00
2022-07-27T05:21:22.474Z,100.00
2022-07-27T05:24:24.414Z,100.00
2022-07-27T05:27:26.248Z,100.00
2022-07-27T05:30:28.109Z,100.00
2022-07-27T05:33:30.943Z,100.00
2022-07-27T05:36:32.831Z,100.00
2022-07-27T05:39:35.116Z,100.00
2022-07-27T05:42:37.039Z,100.00
2022-07-27T05:45:38.949Z,100.00
2022-07-27T05:48:41.010Z,100.00
2022-07-27T05:51:43.760Z,100.00
2022-07-27T05:54:45.543Z,100.00
2022-07-27T05:57:47.419Z,100.00
2022-07-27T06:00:49.465Z,100.00
2022-07-27T06:03:51.604Z,100.00
2022-07-27T06:07:11.951Z,100.00
2022-07-27T06:10:14.028Z,100.00
2022-07-27T06:13:15.833Z,100.00
2022-07-27T06:16:17.772Z,100.00
2022-07-27T06:19:21.318Z,100.00
2022-07-27T06:22:26.581Z,100.00
2022-07-27T06:25:33.962Z,100.00
2022-07-27T06:28:37.818Z,100.00
2022-07-27T06:31:39.782Z,100.00
2022-07-27T06:34:44.541Z,100.00
2022-07-27T06:37:52.907Z,100.00
2022-07-27T06:40:55.568Z,100.00
2022-07-27T06:43:57.395Z,100.00
2022-07-27T06:46:59.750Z,100.00
2022-07-27T06:50:02.160Z,100.00
2022-07-27T06:53:04.027Z,100.00
2022-07-27T06:56:05.861Z,100.00
2022-07-27T06:59:07.646Z,100.00
2022-07-27T07:02:09.486Z,100.00
2022-07-27T07:05:11.439Z,100.00
2022-07-27T07:08:14.814Z,100.00
2022-07-27T07:11:16.853Z,100.00
2022-07-27T07:14:18.657Z,99.87
2022-07-27T07:17:20.711Z,99.79
2022-07-27T07:20:23.048Z,100.00
2022-07-27T07:23:24.940Z,100.00
2022-07-27T07:26:26.815Z,100.00
2022-07-27T07:29:28.609Z,100.00
2022-07-27T07:32:33.615Z,100.00
2022-07-27T07:35:35.733Z,99.69
2022-07-27T07:38:37.740Z,99.46
2022-07-27T07:41:40.562Z,100.00
2022-07-27T07:44:42.989Z,100.00
2022-07-27T07:47:44.927Z,99.83
2022-07-27T07:50:46.890Z,100.00
2022-07-27T07:53:54.623Z,99.63
2022-07-27T07:56:56.314Z,97.46
2022-07-27T07:59:58.075Z,97.97
2022-07-27T08:03:00.229Z,99.52
2022-07-27T08:06:02.295Z,97.57
2022-07-27T08:09:05.141Z,97.77
2022-07-27T08:12:07.135Z,97.52
2022-07-27T08:15:10.195Z,96.83
2022-07-27T08:18:12.108Z,95.66
2022-07-27T08:21:13.885Z,97.07
2022-07-27T08:24:15.725Z,96.78
2022-07-27T08:27:17.788Z,93.86
2022-07-27T08:30:19.751Z,93.83
2022-07-27T08:33:21.663Z,92.33
2022-07-27T08:36:23.462Z,91.84
2022-07-27T08:40:19.903Z,92.30
2022-07-27T08:42:47.354Z,89.97
2022-07-27T08:45:57.094Z,90.63
2022-07-27T08:49:01.505Z,92.64
2022-07-27T08:52:03.474Z,91.05
2022-07-27T08:55:05.574Z,88.43
2022-07-27T08:58:08.183Z,88.26
2022-07-27T09:01:10.134Z,89.39
2022-07-27T09:04:12.067Z,89.85
2022-07-27T09:07:31.249Z,87.27
2022-07-27T09:10:35.316Z,87.58
2022-07-27T09:13:37.536Z,85.80
2022-07-27T09:17:28.436Z,84.35
2022-07-27T09:20:07.224Z,83.45
2022-07-27T09:23:09.067Z,84.34
2022-07-27T09:26:35.082Z,83.89
2022-07-27T09:29:37.228Z,84.89
2022-07-27T09:32:40.111Z,84.93
2022-07-27T09:35:42.046Z,84.16
2022-07-27T09:39:02.083Z,84.46
2022-07-27T09:42:04.649Z,85.41
2022-07-27T09:45:33.989Z,84.86
2022-07-27T09:48:37.167Z,80.46
2022-07-27T09:52:02.507Z,80.78
2022-07-27T09:55:06.112Z,80.68
2022-07-27T09:58:08.267Z,81.82
2022-07-27T10:01:21.835Z,79.92
2022-07-27T10:04:25.204Z,79.70
2022-07-27T10:07:27.059Z,78.68
2022-07-27T10:10:29.079Z,79.21
2022-07-27T10:13:30.894Z,80.61
2022-07-27T10:16:34.473Z,79.98
2022-07-27T10:19:47.616Z,77.93
2022-07-27T10:22:53.540Z,79.77
2022-07-27T10:26:15.109Z,78.21
2022-07-27T10:29:20.334Z,77.74
2022-07-27T10:32:33.217Z,77.96
2022-07-27T10:35:35.594Z,77.34
2022-07-27T10:38:52.209Z,74.08
2022-07-27T10:41:53.861Z,74.82
2022-07-27T10:45:03.001Z,73.80
2022-07-27T10:48:04.991Z,72.46
2022-07-27T10:51:07.423Z,71.63
2022-07-27T10:54:34.372Z,71.96
2022-07-27T10:57:38.775Z,72.17
2022-07-27T11:00:54.010Z,71.09
2022-07-27T11:04:08.966Z,70.10
2022-07-27T11:07:34.229Z,68.76
2022-07-27T11:10:43.619Z,69.02
2022-07-27T11:13:47.102Z,69.31
2022-07-27T11:16:56.735Z,71.22
2022-07-27T11:20:03.990Z,72.60
2022-07-27T11:26:50.111Z,68.41
2022-07-27T11:29:51.943Z,65.65
2022-07-27T11:32:54.412Z,65.54
2022-07-27T11:35:59.516Z,65.81
2022-07-27T11:39:01.267Z,66.15
2022-07-27T11:42:09.011Z,65.25
2022-07-27T11:45:28.807Z,65.91
2022-07-27T11:48:43.990Z,67.18
2022-07-27T11:51:53.143Z,67.38
2022-07-27T11:54:54.953Z,67.55
2022-07-27T11:58:04.465Z,67.20
2022-07-27T12:01:06.189Z,65.70
2022-07-27T12:04:18.940Z,64.41
2022-07-27T12:07:33.363Z,65.56
2022-07-27T12:10:37.671Z,65.48
2022-07-27T12:13:39.580Z,66.33
2022-07-27T12:16:41.512Z,66.67
2022-07-27T12:19:43.683Z,66.76
2022-07-27T12:22:47.711Z,66.69
2022-07-27T12:25:49.762Z,66.37
2022-07-27T12:29:08.540Z,66.44
2022-07-27T12:32:10.435Z,65.98
2022-07-27T12:35:37.398Z,64.39
2022-07-27T12:38:43.654Z,64.07
2022-07-27T12:41:46.006Z,63.98
2022-07-27T12:44:48.565Z,64.69
2022-07-27T12:47:50.281Z,65.40
2022-07-27T12:51:02.642Z,65.35
2022-07-27T12:54:04.509Z,65.32
2022-07-27T12:57:06.309Z,65.25
2022-07-27T13:00:14.389Z,65.10
2022-07-27T13:03:16.436Z,65.13
2022-07-27T13:06:18.234Z,65.59
2022-07-27T13:09:20.020Z,65.77
2022-07-27T13:12:22.284Z,65.38
2022-07-27T13:15:24.287Z,64.48
2022-07-27T13:18:26.137Z,63.11
2022-07-27T13:21:27.993Z,62.67
2022-07-27T13:24:29.764Z,63.45
2022-07-27T13:27:31.579Z,64.05
2022-07-27T13:30:33.364Z,63.60
2022-07-27T13:33:35.028Z,62.76
2022-07-27T13:36:36.799Z,62.39
2022-07-27T13:39:38.620Z,61.47
2022-07-27T13:42:40.471Z,61.62
2022-07-27T13:45:43.576Z,61.88
2022-07-27T13:48:45.734Z,61.48
2022-07-27T13:51:47.946Z,60.69
2022-07-27T13:54:50.358Z,60.12
2022-07-27T13:57:52.129Z,59.30
2022-07-27T14:00:54.207Z,59.60
2022-07-27T14:03:56.131Z,59.64
2022-07-27T14:06:58.947Z,59.82
2022-07-27T14:10:19.391Z,60.40
2022-07-27T14:13:22.485Z,59.24
2022-07-27T14:16:24.901Z,58.68
2022-07-27T14:19:28.243Z,57.91
2022-07-27T14:22:29.929Z,57.61
2022-07-27T14:25:31.731Z,57.25
2022-07-27T14:28:33.786Z,58.03
2022-07-27T14:31:35.749Z,58.80
2022-07-27T14:34:37.636Z,58.92
2022-07-27T14:37:39.528Z,59.17
2022-07-27T14:40:41.477Z,58.86
2022-07-27T14:43:43.651Z,59.39
2022-07-27T14:46:45.571Z,59.23
2022-07-27T14:49:47.425Z,58.80
2022-07-27T14:52:49.938Z,58.78
2022-07-27T14:55:51.728Z,58.71
2022-07-27T14:58:53.545Z,58.57
2022-07-27T15:01:55.457Z,58.23
2022-07-27T15:04:57.432Z,57.59
2022-07-27T15:07:59.805Z,57.25
2022-07-27T15:11:01.530Z,56.73
2022-07-27T15:14:05.214Z,55.99
2022-07-27T15:17:07.193Z,56.30
2022-07-27T15:20:09.200Z,56.74
2022-07-27T15:23:11.059Z,56.79
2022-07-27T15:26:13.351Z,57.06
2022-07-27T15:29:15.731Z,57.33
2022-07-27T15:32:17.873Z,58.05
2022-07-27T15:35:19.768Z,57.87
2022-07-27T15:38:21.589Z,57.73
2022-07-27T15:41:23.485Z,57.67
2022-07-27T15:44:25.265Z,57.41
2022-07-27T15:47:26.968Z,57.48
2022-07-27T15:50:28.769Z,57.74
2022-07-27T15:53:30.604Z,57.90
2022-07-27T15:56:32.400Z,57.73
2022-07-27T15:59:34.217Z,57.73
2022-07-27T16:02:36.008Z,58.09
2022-07-27T16:05:39.177Z,58.57
2022-07-27T16:08:41.089Z,58.82
2022-07-27T16:11:43.010Z,58.46
2022-07-27T16:14:45.077Z,58.68
2022-07-27T16:17:46.780Z,59.06
2022-07-27T16:20:48.723Z,59.05
2022-07-27T16:23:52.123Z,59.13
2022-07-27T16:26:54.529Z,58.74
2022-07-27T16:29:56.236Z,58.65
2022-07-27T16:32:58.709Z,58.42
2022-07-27T16:36:00.586Z,58.13
2022-07-27T16:39:02.340Z,58.31
2022-07-27T16:42:04.376Z,58.13
2022-07-27T16:45:07.030Z,58.21
2022-07-27T16:48:09.037Z,58.26
2022-07-27T16:51:15.132Z,58.49
2022-07-27T16:54:17.074Z,58.05
2022-07-27T16:57:18.878Z,58.44
2022-07-27T17:00:20.846Z,58.46
2022-07-27T17:03:22.729Z,58.12
2022-07-27T17:06:26.223Z,57.79
2022-07-27T17:09:28.070Z,57.55
2022-07-27T17:12:30.390Z,57.83
2022-07-27T17:15:33.380Z,57.87
2022-07-27T17:18:40.194Z,57.56
2022-07-27T17:21:43.295Z,57.42
2022-07-27T17:24:45.347Z,57.58
2022-07-27T17:27:47.642Z,58.10
2022-07-27T17:30:49.403Z,58.73
2022-07-27T17:33:51.478Z,59.15
2022-07-27T17:36:53.289Z,59.81
2022-07-27T17:39:55.093Z,59.83
2022-07-27T17:42:56.829Z,60.46
2022-07-27T17:45:58.943Z,61.11
2022-07-27T17:49:00.813Z,61.76
2022-07-27T17:52:02.659Z,62.40
2022-07-27T17:55:05.405Z,62.96
2022-07-27T17:58:07.235Z,63.67
2022-07-27T18:01:09.388Z,64.08
2022-07-27T18:04:11.306Z,64.58
2022-07-27T18:07:13.534Z,64.82
2022-07-27T18:10:15.296Z,64.80
2022-07-27T18:13:17.799Z,65.00
2022-07-27T18:16:19.747Z,65.13
2022-07-27T18:19:21.767Z,65.47
2022-07-27T18:22:23.641Z,65.76
2022-07-27T18:25:25.415Z,66.10
2022-07-27T18:28:27.168Z,66.56
2022-07-27T18:31:29.037Z,66.72
2022-07-27T18:34:30.979Z,66.91
2022-07-27T18:37:32.792Z,67.02
2022-07-27T18:40:39.430Z,67.19
2022-07-27T18:43:41.174Z,67.34
2022-07-27T18:46:43.208Z,67.25
2022-07-27T18:49:45.678Z,67.10
2022-07-27T18:52:47.384Z,67.13
2022-07-27T18:55:52.709Z,67.03
2022-07-27T18:58:57.590Z,66.90
2022-07-27T19:01:59.359Z,66.70
2022-07-27T19:05:01.186Z,66.62
2022-07-27T19:08:03.813Z,66.51
2022-07-27T19:11:05.530Z,66.58
2022-07-27T19:14:07.329Z,66.92
2022-07-27T19:17:14.601Z,66.97
2022-07-27T19:20:17.024Z,67.09
2022-07-27T19:23:19.001Z,67.39
2022-07-27T19:26:21.081Z,67.65
2022-07-27T19:29:22.986Z,67.78
2022-07-27T19:32:24.787Z,67.94
2022-07-27T19:35:26.827Z,68.10
2022-07-27T19:38:28.573Z,68.22
2022-07-27T19:41:30.973Z,68.35
2022-07-27T19:44:32.707Z,68.44
2022-07-27T19:47:35.244Z,68.49
2022-07-27T19:50:37.136Z,68.63
2022-07-27T19:53:41.139Z,68.68
2022-07-27T19:56:46.234Z,68.91
2022-07-27T19:59:56.039Z,68.91
2022-07-27T20:02:58.585Z,68.96
2022-07-27T20:06:02.338Z,69.05
2022-07-27T20:09:05.794Z,69.05
2022-07-27T20:12:08.399Z,68.98
2022-07-27T20:15:10.459Z,69.18
2022-07-27T20:18:12.280Z,69.47
2022-07-27T20:21:23.028Z,69.58
2022-07-27T20:24:26.923Z,69.70
2022-07-27T20:27:29.025Z,69.93
2022-07-27T20:30:32.048Z,70.27
2022-07-27T20:33:33.845Z,70.72
2022-07-27T20:36:35.801Z,71.12
2022-07-27T20:39:37.669Z,71.22
2022-07-27T20:42:41.161Z,71.24
2022-07-27T20:45:43.437Z,71.23
2022-07-27T20:48:45.233Z,71.53
2022-07-27T20:51:47.132Z,71.82
2022-07-27T20:54:49.282Z,71.99
2022-07-27T20:57:51.074Z,72.20
2022-07-27T21:00:52.846Z,72.68
2022-07-27T21:03:54.602Z,73.10
2022-07-27T21:06:56.403Z,73.33
2022-07-27T21:09:58.410Z,73.53
2022-07-27T21:13:00.179Z,73.85
2022-07-27T21:16:01.984Z,73.87
2022-07-27T21:19:04.089Z,74.10
2022-07-27T21:22:06.161Z,74.12
2022-07-27T21:25:08.762Z,74.30
2022-07-27T21:28:10.542Z,74.46
2022-07-27T21:31:14.307Z,74.47
2022-07-27T21:34:17.823Z,74.39
2022-07-27T21:37:19.729Z,74.45
2022-07-27T21:40:21.449Z,74.53
2022-07-27T21:43:23.219Z,74.54
2022-07-27T21:46:24.936Z,74.50
2022-07-27T21:49:34.169Z,74.58
2022-07-27T21:52:36.564Z,74.62
2022-07-27T21:55:39.173Z,74.61
2022-07-27T21:58:45.130Z,74.66
2022-07-27T22:01:46.859Z,74.78
2022-07-27T22:04:48.650Z,74.86
2022-07-27T22:07:51.261Z,75.20
2022-07-27T22:10:53.722Z,74.97
2022-07-27T22:13:55.508Z,74.98
2022-07-27T22:16:57.524Z,75.30
2022-07-27T22:19:59.360Z,75.58
2022-07-27T22:23:01.314Z,75.60
2022-07-27T22:26:03.144Z,75.81
2022-07-27T22:29:04.896Z,76.11
2022-07-27T22:32:08.023Z,76.17
2022-07-27T22:35:09.896Z,76.22
2022-07-27T22:38:11.722Z,76.21
2022-07-27T22:41:13.966Z,76.14
2022-07-27T22:44:15.890Z,76.28
2022-07-27T22:47:20.985Z,76.20
2022-07-27T22:50:23.371Z,76.18
2022-07-27T22:53:25.150Z,76.17
2022-07-27T22:56:26.949Z,76.27
2022-07-27T22:59:28.833Z,76.28
2022-07-27T23:02:30.825Z,76.36
2022-07-27T23:05:32.600Z,76.35
2022-07-27T23:08:34.358Z,76.14
2022-07-27T23:11:36.033Z,76.33
2022-07-27T23:14:37.760Z,76.33
2022-07-27T23:17:39.491Z,76.46
2022-07-27T23:20:41.354Z,76.57
2022-07-27T23:23:52.164Z,76.57
2022-07-27T23:26:56.501Z,76.76
2022-07-27T23:29:58.182Z,77.00
2022-07-27T23:32:59.966Z,77.13
2022-07-27T23:36:06.440Z,77.12
2022-07-27T23:39:08.183Z,77.16
2022-07-27T23:42:09.864Z,77.14
2022-07-27T23:45:11.856Z,77.18
2022-07-27T23:48:13.747Z,77.10
2022-07-27T23:51:17.925Z,77.08
2022-07-27T23:54:19.754Z,77.04
2022-07-27T23:57:22.362Z,77.01
